sensor_id;sensor_type;location;lat;lon;timestamp;temperature;humidity
12847;DHT22;6492;48.128;8.320;2023-01-15T00:02:41;7.10;60.00
12847;DHT22;6492;48.128;8.320;2023-01-15T00:06:42;7.10;59.20
12847;DHT22;6492;48.128;8.320;2023-01-15T00:10:47;7.20;58.30
12847;DHT22;6492;48.128;8.320;2023-01-15T00:14:48;7.20;60.30
12847;DHT22;6492;48.128;8.320;2023-01-15T00:18:51;7.10;60.60
12847;DHT22;6492;48.128;8.320;2023-01-15T00:22:53;7.10;62.80
12847;DHT22;6492;48.128;8.320;2023-01-15T00:26:56;7.10;63.70
12847;DHT22;6492;48.128;8.320;2023-01-15T00:31:15;7.10;64.40
12847;DHT22;6492;48.128;8.320;2023-01-15T00:35:19;7.00;66.40
12847;DHT22;6492;48.128;8.320;2023-01-15T00:39:22;7.00;66.40
12847;DHT22;6492;48.128;8.320;2023-01-15T00:43:25;7.00;66.80
12847;DHT22;6492;48.128;8.320;2023-01-15T00:47:27;7.00;68.50
12847;DHT22;6492;48.128;8.320;2023-01-15T00:51:28;6.90;68.00
12847;DHT22;6492;48.128;8.320;2023-01-15T00:55:30;7.00;68.60
12847;DHT22;6492;48.128;8.320;2023-01-15T00:59:33;7.00;69.30
12847;DHT22;6492;48.128;8.320;2023-01-15T01:03:35;7.00;70.00
12847;DHT22;6492;48.128;8.320;2023-01-15T01:07:37;6.90;71.40
12847;DHT22;6492;48.128;8.320;2023-01-15T01:11:38;6.90;73.00
12847;DHT22;6492;48.128;8.320;2023-01-15T01:15:41;6.80;74.50
12847;DHT22;6492;48.128;8.320;2023-01-15T01:19:43;6.90;75.30
12847;DHT22;6492;48.128;8.320;2023-01-15T01:23:45;6.90;75.80
12847;DHT22;6492;48.128;8.320;2023-01-15T01:27:47;6.90;76.30
12847;DHT22;6492;48.128;8.320;2023-01-15T01:31:50;6.90;76.60
12847;DHT22;6492;48.128;8.320;2023-01-15T01:35:52;7.00;76.20
12847;DHT22;6492;48.128;8.320;2023-01-15T01:39:54;7.00;76.70
12847;DHT22;6492;48.128;8.320;2023-01-15T01:43:58;7.00;77.00
12847;DHT22;6492;48.128;8.320;2023-01-15T01:48:05;7.00;77.20
12847;DHT22;6492;48.128;8.320;2023-01-15T01:52:11;7.00;76.40
12847;DHT22;6492;48.128;8.320;2023-01-15T01:56:14;7.10;76.60
12847;DHT22;6492;48.128;8.320;2023-01-15T02:00:18;7.20;75.30
12847;DHT22;6492;48.128;8.320;2023-01-15T02:04:22;7.20;74.90
12847;DHT22;6492;48.128;8.320;2023-01-15T02:08:26;7.20;75.30
12847;DHT22;6492;48.128;8.320;2023-01-15T02:12:34;7.20;74.10
12847;DHT22;6492;48.128;8.320;2023-01-15T02:16:41;7.20;74.10
12847;DHT22;6492;48.128;8.320;2023-01-15T02:20:47;7.20;74.40
12847;DHT22;6492;48.128;8.320;2023-01-15T02:24:59;7.20;73.90
12847;DHT22;6492;48.128;8.320;2023-01-15T02:29:09;7.20;74.00
12847;DHT22;6492;48.128;8.320;2023-01-15T02:33:15;7.20;74.70
12847;DHT22;6492;48.128;8.320;2023-01-15T02:37:23;7.10;74.40
12847;DHT22;6492;48.128;8.320;2023-01-15T02:41:31;7.20;72.80
12847;DHT22;6492;48.128;8.320;2023-01-15T02:45:39;7.20;72.60
12847;DHT22;6492;48.128;8.320;2023-01-15T02:50:14;7.10;74.90
12847;DHT22;6492;48.128;8.320;2023-01-15T02:54:19;7.00;74.60
12847;DHT22;6492;48.128;8.320;2023-01-15T02:58:25;7.10;73.20
12847;DHT22;6492;48.128;8.320;2023-01-15T03:02:34;7.10;72.60
12847;DHT22;6492;48.128;8.320;2023-01-15T03:06:41;7.10;71.50
12847;DHT22;6492;48.128;8.320;2023-01-15T03:10:47;7.20;69.50
12847;DHT22;6492;48.128;8.320;2023-01-15T03:14:58;7.20;68.70
12847;DHT22;6492;48.128;8.320;2023-01-15T03:19:12;7.20;69.40
12847;DHT22;6492;48.128;8.320;2023-01-15T03:23:18;7.20;68.50
12847;DHT22;6492;48.128;8.320;2023-01-15T03:27:23;7.10;70.40
12847;DHT22;6492;48.128;8.320;2023-01-15T03:31:25;7.10;72.50
12847;DHT22;6492;48.128;8.320;2023-01-15T03:35:45;7.00;73.90
12847;DHT22;6492;48.128;8.320;2023-01-15T03:39:47;7.00;74.40
12847;DHT22;6492;48.128;8.320;2023-01-15T03:43:58;7.00;76.20
12847;DHT22;6492;48.128;8.320;2023-01-15T03:48:08;6.90;75.50
12847;DHT22;6492;48.128;8.320;2023-01-15T03:52:21;6.90;75.10
12847;DHT22;6492;48.128;8.320;2023-01-15T03:56:30;6.80;75.10
12847;DHT22;6492;48.128;8.320;2023-01-15T04:00:36;6.90;76.00
12847;DHT22;6492;48.128;8.320;2023-01-15T04:04:39;6.90;76.40
12847;DHT22;6492;48.128;8.320;2023-01-15T04:08:43;6.80;75.90
12847;DHT22;6492;48.128;8.320;2023-01-15T04:12:46;6.90;74.60
12847;DHT22;6492;48.128;8.320;2023-01-15T04:16:48;6.90;75.10
12847;DHT22;6492;48.128;8.320;2023-01-15T04:20:50;6.90;75.60
12847;DHT22;6492;48.128;8.320;2023-01-15T04:24:55;6.90;75.90
12847;DHT22;6492;48.128;8.320;2023-01-15T04:28:57;6.90;75.90
12847;DHT22;6492;48.128;8.320;2023-01-15T04:32:59;6.80;76.00
12847;DHT22;6492;48.128;8.320;2023-01-15T04:37:01;6.90;76.30
12847;DHT22;6492;48.128;8.320;2023-01-15T04:41:04;6.90;76.50
12847;DHT22;6492;48.128;8.320;2023-01-15T04:45:24;6.80;76.50
12847;DHT22;6492;48.128;8.320;2023-01-15T04:49:26;6.80;76.50
12847;DHT22;6492;48.128;8.320;2023-01-15T04:53:27;6.80;76.90
12847;DHT22;6492;48.128;8.320;2023-01-15T04:57:30;6.80;77.00
12847;DHT22;6492;48.128;8.320;2023-01-15T05:01:32;6.80;77.40
12847;DHT22;6492;48.128;8.320;2023-01-15T05:05:34;6.80;77.50
12847;DHT22;6492;48.128;8.320;2023-01-15T05:09:36;6.80;75.90
12847;DHT22;6492;48.128;8.320;2023-01-15T05:13:39;6.80;75.20
12847;DHT22;6492;48.128;8.320;2023-01-15T05:17:41;6.80;75.60
12847;DHT22;6492;48.128;8.320;2023-01-15T05:21:44;6.80;76.20
12847;DHT22;6492;48.128;8.320;2023-01-15T05:25:45;6.80;76.70
12847;DHT22;6492;48.128;8.320;2023-01-15T05:29:48;6.80;77.00
12847;DHT22;6492;48.128;8.320;2023-01-15T05:33:51;6.70;77.30
12847;DHT22;6492;48.128;8.320;2023-01-15T05:37:53;6.70;77.40
12847;DHT22;6492;48.128;8.320;2023-01-15T05:41:55;6.70;77.50
12847;DHT22;6492;48.128;8.320;2023-01-15T05:46:01;6.70;76.70
12847;DHT22;6492;48.128;8.320;2023-01-15T05:50:04;6.70;76.70
12847;DHT22;6492;48.128;8.320;2023-01-15T05:54:07;6.70;77.10
12847;DHT22;6492;48.128;8.320;2023-01-15T05:58:09;6.70;76.70
12847;DHT22;6492;48.128;8.320;2023-01-15T06:02:13;6.60;76.10
12847;DHT22;6492;48.128;8.320;2023-01-15T06:06:16;6.60;76.50
12847;DHT22;6492;48.128;8.320;2023-01-15T06:10:18;6.60;76.00
12847;DHT22;6492;48.128;8.320;2023-01-15T06:14:20;6.60;76.60
12847;DHT22;6492;48.128;8.320;2023-01-15T06:18:24;6.60;76.20
12847;DHT22;6492;48.128;8.320;2023-01-15T06:22:25;6.60;75.70
12847;DHT22;6492;48.128;8.320;2023-01-15T06:26:29;6.60;75.20
12847;DHT22;6492;48.128;8.320;2023-01-15T06:30:31;6.60;74.10
12847;DHT22;6492;48.128;8.320;2023-01-15T06:34:40;6.60;75.50
12847;DHT22;6492;48.128;8.320;2023-01-15T06:38:44;6.50;75.80
12847;DHT22;6492;48.128;8.320;2023-01-15T06:42:46;6.50;76.20
12847;DHT22;6492;48.128;8.320;2023-01-15T06:47:12;6.40;74.80
12847;DHT22;6492;48.128;8.320;2023-01-15T06:51:25;6.40;74.90
12847;DHT22;6492;48.128;8.320;2023-01-15T06:55:26;6.40;75.10
12847;DHT22;6492;48.128;8.320;2023-01-15T06:59:28;6.30;76.20
12847;DHT22;6492;48.128;8.320;2023-01-15T07:03:47;6.30;77.00
12847;DHT22;6492;48.128;8.320;2023-01-15T07:07:50;6.30;77.80
12847;DHT22;6492;48.128;8.320;2023-01-15T07:11:52;6.20;78.10
12847;DHT22;6492;48.128;8.320;2023-01-15T07:15:56;6.20;77.90
12847;DHT22;6492;48.128;8.320;2023-01-15T07:19:58;6.10;77.60
12847;DHT22;6492;48.128;8.320;2023-01-15T07:24:04;5.80;74.80
12847;DHT22;6492;48.128;8.320;2023-01-15T07:28:06;5.10;66.60
12847;DHT22;6492;48.128;8.320;2023-01-15T07:32:09;4.50;66.80
12847;DHT22;6492;48.128;8.320;2023-01-15T07:36:11;4.10;69.40
12847;DHT22;6492;48.128;8.320;2023-01-15T07:40:14;3.90;71.20
12847;DHT22;6492;48.128;8.320;2023-01-15T07:44:16;3.70;71.40
12847;DHT22;6492;48.128;8.320;2023-01-15T07:48:35;3.50;71.70
12847;DHT22;6492;48.128;8.320;2023-01-15T07:52:54;3.30;72.00
12847;DHT22;6492;48.128;8.320;2023-01-15T07:57:18;3.00;72.20
12847;DHT22;6492;48.128;8.320;2023-01-15T08:01:32;2.70;71.30
12847;DHT22;6492;48.128;8.320;2023-01-15T08:05:34;2.40;70.60
12847;DHT22;6492;48.128;8.320;2023-01-15T08:09:46;2.10;70.40
12847;DHT22;6492;48.128;8.320;2023-01-15T08:13:49;1.90;71.00
12847;DHT22;6492;48.128;8.320;2023-01-15T08:18:09;1.60;71.20
12847;DHT22;6492;48.128;8.320;2023-01-15T08:22:18;1.40;72.00
12847;DHT22;6492;48.128;8.320;2023-01-15T08:26:20;1.30;72.80
12847;DHT22;6492;48.128;8.320;2023-01-15T08:30:24;1.20;73.20
12847;DHT22;6492;48.128;8.320;2023-01-15T08:34:26;1.10;73.60
12847;DHT22;6492;48.128;8.320;2023-01-15T08:38:30;1.00;73.50
12847;DHT22;6492;48.128;8.320;2023-01-15T08:42:32;0.90;73.80
12847;DHT22;6492;48.128;8.320;2023-01-15T08:46:36;0.80;74.00
12847;DHT22;6492;48.128;8.320;2023-01-15T08:50:39;0.70;74.40
12847;DHT22;6492;48.128;8.320;2023-01-15T08:54:55;0.60;74.60
12847;DHT22;6492;48.128;8.320;2023-01-15T08:58:57;0.60;74.90
12847;DHT22;6492;48.128;8.320;2023-01-15T09:03:09;0.60;75.20
12847;DHT22;6492;48.128;8.320;2023-01-15T09:07:11;0.60;75.40
12847;DHT22;6492;48.128;8.320;2023-01-15T09:11:13;0.60;75.60
12847;DHT22;6492;48.128;8.320;2023-01-15T09:15:16;0.50;75.80
12847;DHT22;6492;48.128;8.320;2023-01-15T09:19:19;0.50;76.70
12847;DHT22;6492;48.128;8.320;2023-01-15T09:23:21;0.50;76.10
12847;DHT22;6492;48.128;8.320;2023-01-15T09:27:23;0.40;76.10
12847;DHT22;6492;48.128;8.320;2023-01-15T09:31:25;0.40;76.20
12847;DHT22;6492;48.128;8.320;2023-01-15T09:35:28;0.40;76.30
12847;DHT22;6492;48.128;8.320;2023-01-15T09:39:30;0.40;76.50
12847;DHT22;6492;48.128;8.320;2023-01-15T09:43:41;0.40;76.60
12847;DHT22;6492;48.128;8.320;2023-01-15T09:48:15;0.40;76.50
12847;DHT22;6492;48.128;8.320;2023-01-15T09:52:27;0.40;76.60
12847;DHT22;6492;48.128;8.320;2023-01-15T09:56:30;0.40;76.60
12847;DHT22;6492;48.128;8.320;2023-01-15T10:00:37;0.40;76.60
12847;DHT22;6492;48.128;8.320;2023-01-15T10:04:42;0.40;76.70
12847;DHT22;6492;48.128;8.320;2023-01-15T10:08:46;0.40;77.60
12847;DHT22;6492;48.128;8.320;2023-01-15T10:12:53;0.40;76.80
12847;DHT22;6492;48.128;8.320;2023-01-15T10:16:58;0.50;76.90
12847;DHT22;6492;48.128;8.320;2023-01-15T10:21:10;0.40;76.70
12847;DHT22;6492;48.128;8.320;2023-01-15T10:25:34;0.40;76.70
12847;DHT22;6492;48.128;8.320;2023-01-15T10:29:42;0.30;76.70
12847;DHT22;6492;48.128;8.320;2023-01-15T10:33:55;0.30;76.70
12847;DHT22;6492;48.128;8.320;2023-01-15T10:38:10;0.30;76.70
12847;DHT22;6492;48.128;8.320;2023-01-15T10:42:28;0.30;76.70
12847;DHT22;6492;48.128;8.320;2023-01-15T10:46:35;0.30;76.80
12847;DHT22;6492;48.128;8.320;2023-01-15T10:50:47;0.30;77.00
12847;DHT22;6492;48.128;8.320;2023-01-15T10:54:53;0.40;77.00
12847;DHT22;6492;48.128;8.320;2023-01-15T10:59:03;0.50;77.20
12847;DHT22;6492;48.128;8.320;2023-01-15T11:03:12;0.50;77.20
12847;DHT22;6492;48.128;8.320;2023-01-15T11:07:20;0.40;77.80
12847;DHT22;6492;48.128;8.320;2023-01-15T11:16:23;0.40;76.80
12847;DHT22;6492;48.128;8.320;2023-01-15T11:20:45;0.50;76.70
12847;DHT22;6492;48.128;8.320;2023-01-15T11:24:49;0.40;76.50
12847;DHT22;6492;48.128;8.320;2023-01-15T11:29:11;0.40;76.50
12847;DHT22;6492;48.128;8.320;2023-01-15T11:33:35;0.40;76.60
12847;DHT22;6492;48.128;8.320;2023-01-15T11:37:37;0.40;76.60
12847;DHT22;6492;48.128;8.320;2023-01-15T11:41:39;0.50;76.80
12847;DHT22;6492;48.128;8.320;2023-01-15T11:46:24;0.50;76.80
12847;DHT22;6492;48.128;8.320;2023-01-15T11:50:50;0.50;76.50
12847;DHT22;6492;48.128;8.320;2023-01-15T11:54:54;0.40;75.90
12847;DHT22;6492;48.128;8.320;2023-01-15T11:58:57;0.40;75.90
12847;DHT22;6492;48.128;8.320;2023-01-15T12:03:13;0.30;75.70
12847;DHT22;6492;48.128;8.320;2023-01-15T12:07:17;0.30;75.80
12847;DHT22;6492;48.128;8.320;2023-01-15T12:11:45;0.20;75.70
12847;DHT22;6492;48.128;8.320;2023-01-15T12:16:11;0.20;75.70
12847;DHT22;6492;48.128;8.320;2023-01-15T12:20:21;0.20;76.00
12847;DHT22;6492;48.128;8.320;2023-01-15T12:24:56;0.20;76.10
12847;DHT22;6492;48.128;8.320;2023-01-15T12:29:05;0.20;76.30
12847;DHT22;6492;48.128;8.320;2023-01-15T12:33:20;0.20;76.30
12847;DHT22;6492;48.128;8.320;2023-01-15T12:37:26;0.20;76.30
12847;DHT22;6492;48.128;8.320;2023-01-15T12:41:32;0.20;76.40
12847;DHT22;6492;48.128;8.320;2023-01-15T12:45:53;0.20;76.40
12847;DHT22;6492;48.128;8.320;2023-01-15T12:50:02;0.20;76.60
12847;DHT22;6492;48.128;8.320;2023-01-15T12:54:07;0.20;76.60
12847;DHT22;6492;48.128;8.320;2023-01-15T12:58:20;0.20;76.60
12847;DHT22;6492;48.128;8.320;2023-01-15T13:02:32;0.30;76.70
12847;DHT22;6492;48.128;8.320;2023-01-15T13:06:41;0.30;76.90
12847;DHT22;6492;48.128;8.320;2023-01-15T13:10:47;0.20;76.70
12847;DHT22;6492;48.128;8.320;2023-01-15T13:14:52;0.30;76.80
12847;DHT22;6492;48.128;8.320;2023-01-15T13:19:13;0.20;76.60
12847;DHT22;6492;48.128;8.320;2023-01-15T13:23:32;0.20;76.00
12847;DHT22;6492;48.128;8.320;2023-01-15T13:27:47;0.20;76.00
12847;DHT22;6492;48.128;8.320;2023-01-15T13:32:07;0.30;75.90
12847;DHT22;6492;48.128;8.320;2023-01-15T13:36:15;0.30;75.90
12847;DHT22;6492;48.128;8.320;2023-01-15T13:40:22;0.30;75.60
12847;DHT22;6492;48.128;8.320;2023-01-15T13:44:52;0.30;75.00
12847;DHT22;6492;48.128;8.320;2023-01-15T13:48:56;0.20;74.30
12847;DHT22;6492;48.128;8.320;2023-01-15T13:53:20;0.40;74.50
12847;DHT22;6492;48.128;8.320;2023-01-15T13:57:31;0.60;74.50
12847;DHT22;6492;48.128;8.320;2023-01-15T14:01:35;0.60;72.10
12847;DHT22;6492;48.128;8.320;2023-01-15T14:05:40;0.50;70.50
12847;DHT22;6492;48.128;8.320;2023-01-15T14:09:42;0.50;69.40
12847;DHT22;6492;48.128;8.320;2023-01-15T14:14:05;0.50;66.30
12847;DHT22;6492;48.128;8.320;2023-01-15T14:18:17;0.50;67.00
12847;DHT22;6492;48.128;8.320;2023-01-15T14:22:38;0.60;67.70
12847;DHT22;6492;48.128;8.320;2023-01-15T14:26:47;0.70;68.10
12847;DHT22;6492;48.128;8.320;2023-01-15T14:35:42;0.70;67.20
12847;DHT22;6492;48.128;8.320;2023-01-15T14:39:49;0.50;63.90
12847;DHT22;6492;48.128;8.320;2023-01-15T14:43:52;0.40;62.80
12847;DHT22;6492;48.128;8.320;2023-01-15T14:47:56;0.20;62.30
12847;DHT22;6492;48.128;8.320;2023-01-15T14:51:58;0.10;64.80
12847;DHT22;6492;48.128;8.320;2023-01-15T14:56:10;0.10;65.50
12847;DHT22;6492;48.128;8.320;2023-01-15T15:00:16;0.10;66.30
12847;DHT22;6492;48.128;8.320;2023-01-15T15:04:26;0.10;66.00
12847;DHT22;6492;48.128;8.320;2023-01-15T15:08:40;0.00;64.90
12847;DHT22;6492;48.128;8.320;2023-01-15T15:12:48;0.00;65.40
12847;DHT22;6492;48.128;8.320;2023-01-15T15:17:19;0.00;66.20
12847;DHT22;6492;48.128;8.320;2023-01-15T15:21:27;-0.10;61.10
12847;DHT22;6492;48.128;8.320;2023-01-15T15:25:56;-0.10;62.20
12847;DHT22;6492;48.128;8.320;2023-01-15T15:30:05;-0.20;62.20
12847;DHT22;6492;48.128;8.320;2023-01-15T15:34:21;-0.20;62.20
12847;DHT22;6492;48.128;8.320;2023-01-15T15:38:31;-0.30;62.60
12847;DHT22;6492;48.128;8.320;2023-01-15T15:42:52;-0.20;62.50
12847;DHT22;6492;48.128;8.320;2023-01-15T15:47:24;-0.30;63.00
12847;DHT22;6492;48.128;8.320;2023-01-15T15:56:52;-0.30;62.40
12847;DHT22;6492;48.128;8.320;2023-01-15T16:01:16;-0.30;61.20
12847;DHT22;6492;48.128;8.320;2023-01-15T16:10:19;-0.40;60.80
12847;DHT22;6492;48.128;8.320;2023-01-15T16:14:50;-0.50;59.60
12847;DHT22;6492;48.128;8.320;2023-01-15T16:18:53;-0.50;58.50
12847;DHT22;6492;48.128;8.320;2023-01-15T16:22:57;-0.60;59.10
12847;DHT22;6492;48.128;8.320;2023-01-15T16:27:03;-0.70;59.30
12847;DHT22;6492;48.128;8.320;2023-01-15T16:31:07;-0.70;58.70
12847;DHT22;6492;48.128;8.320;2023-01-15T16:35:26;-0.80;59.00
12847;DHT22;6492;48.128;8.320;2023-01-15T16:39:36;-0.80;59.70
12847;DHT22;6492;48.128;8.320;2023-01-15T16:43:50;-0.90;59.80
12847;DHT22;6492;48.128;8.320;2023-01-15T16:48:07;-1.00;59.70
12847;DHT22;6492;48.128;8.320;2023-01-15T16:52:35;-1.00;60.50
12847;DHT22;6492;48.128;8.320;2023-01-15T16:56:59;-1.00;60.30
12847;DHT22;6492;48.128;8.320;2023-01-15T17:01:23;-1.10;60.20
12847;DHT22;6492;48.128;8.320;2023-01-15T17:05:25;-1.10;60.20
12847;DHT22;6492;48.128;8.320;2023-01-15T17:09:32;-1.10;61.70
12847;DHT22;6492;48.128;8.320;2023-01-15T17:13:36;-1.20;60.50
12847;DHT22;6492;48.128;8.320;2023-01-15T17:17:40;-1.20;61.10
12847;DHT22;6492;48.128;8.320;2023-01-15T17:21:42;-1.10;61.80
12847;DHT22;6492;48.128;8.320;2023-01-15T17:25:48;-1.00;61.60
12847;DHT22;6492;48.128;8.320;2023-01-15T17:29:50;-0.90;61.20
12847;DHT22;6492;48.128;8.320;2023-01-15T17:33:53;-0.90;60.60
12847;DHT22;6492;48.128;8.320;2023-01-15T17:37:56;-0.90;59.50
12847;DHT22;6492;48.128;8.320;2023-01-15T17:41:58;-0.90;59.10
12847;DHT22;6492;48.128;8.320;2023-01-15T17:46:00;-0.90;57.80
12847;DHT22;6492;48.128;8.320;2023-01-15T17:50:04;-0.90;57.50
12847;DHT22;6492;48.128;8.320;2023-01-15T17:54:06;-1.00;57.00
12847;DHT22;6492;48.128;8.320;2023-01-15T17:58:10;-1.10;57.50
12847;DHT22;6492;48.128;8.320;2023-01-15T18:02:30;-1.10;57.50
12847;DHT22;6492;48.128;8.320;2023-01-15T18:06:52;-1.10;57.30
12847;DHT22;6492;48.128;8.320;2023-01-15T18:10:54;-1.10;57.60
12847;DHT22;6492;48.128;8.320;2023-01-15T18:14:56;-1.00;56.70
12847;DHT22;6492;48.128;8.320;2023-01-15T18:18:57;-1.00;56.10
12847;DHT22;6492;48.128;8.320;2023-01-15T18:23:00;-1.10;56.00
12847;DHT22;6492;48.128;8.320;2023-01-15T18:27:02;-1.00;55.30
12847;DHT22;6492;48.128;8.320;2023-01-15T18:31:05;-1.10;55.50
12847;DHT22;6492;48.128;8.320;2023-01-15T18:35:07;-1.10;55.20
12847;DHT22;6492;48.128;8.320;2023-01-15T18:39:12;-1.20;55.50
12847;DHT22;6492;48.128;8.320;2023-01-15T18:43:14;-1.30;56.00
12847;DHT22;6492;48.128;8.320;2023-01-15T18:47:45;-1.30;56.20
12847;DHT22;6492;48.128;8.320;2023-01-15T18:51:47;-1.10;54.90
12847;DHT22;6492;48.128;8.320;2023-01-15T18:56:10;-1.10;54.30
12847;DHT22;6492;48.128;8.320;2023-01-15T19:00:12;-1.30;54.80
12847;DHT22;6492;48.128;8.320;2023-01-15T19:04:14;-1.40;55.70
12847;DHT22;6492;48.128;8.320;2023-01-15T19:08:16;-1.40;56.10
12847;DHT22;6492;48.128;8.320;2023-01-15T19:12:25;-1.50;55.70
12847;DHT22;6492;48.128;8.320;2023-01-15T19:16:41;-1.50;56.00
12847;DHT22;6492;48.128;8.320;2023-01-15T19:21:17;-1.50;55.40
12847;DHT22;6492;48.128;8.320;2023-01-15T19:25:25;-1.60;55.80
12847;DHT22;6492;48.128;8.320;2023-01-15T19:29:35;-1.50;56.90
12847;DHT22;6492;48.128;8.320;2023-01-15T19:33:48;-1.50;56.70
12847;DHT22;6492;48.128;8.320;2023-01-15T19:37:49;-1.40;56.80
12847;DHT22;6492;48.128;8.320;2023-01-15T19:41:54;-1.40;56.40
12847;DHT22;6492;48.128;8.320;2023-01-15T19:46:15;-1.40;56.20
12847;DHT22;6492;48.128;8.320;2023-01-15T19:51:02;-1.30;56.00
12847;DHT22;6492;48.128;8.320;2023-01-15T19:55:11;-1.20;55.00
12847;DHT22;6492;48.128;8.320;2023-01-15T19:59:14;-1.10;54.30
12847;DHT22;6492;48.128;8.320;2023-01-15T20:03:17;-1.20;54.30
12847;DHT22;6492;48.128;8.320;2023-01-15T20:07:38;-1.40;54.30
12847;DHT22;6492;48.128;8.320;2023-01-15T20:11:40;-1.50;55.30
12847;DHT22;6492;48.128;8.320;2023-01-15T20:15:56;-1.60;56.00
12847;DHT22;6492;48.128;8.320;2023-01-15T20:20:02;-1.60;56.40
12847;DHT22;6492;48.128;8.320;2023-01-15T20:24:05;-1.70;56.20
12847;DHT22;6492;48.128;8.320;2023-01-15T20:28:07;-1.70;57.50
12847;DHT22;6492;48.128;8.320;2023-01-15T20:32:09;-1.60;57.00
12847;DHT22;6492;48.128;8.320;2023-01-15T20:36:12;-1.60;56.20
12847;DHT22;6492;48.128;8.320;2023-01-15T20:40:15;-1.60;56.10
12847;DHT22;6492;48.128;8.320;2023-01-15T20:44:17;-1.70;56.20
12847;DHT22;6492;48.128;8.320;2023-01-15T20:48:36;-1.60;56.00
12847;DHT22;6492;48.128;8.320;2023-01-15T20:52:57;-1.60;55.20
12847;DHT22;6492;48.128;8.320;2023-01-15T20:56:59;-1.50;54.90
12847;DHT22;6492;48.128;8.320;2023-01-15T21:01:02;-1.50;54.30
12847;DHT22;6492;48.128;8.320;2023-01-15T21:05:04;-1.30;53.10
12847;DHT22;6492;48.128;8.320;2023-01-15T21:09:08;-1.30;51.80
12847;DHT22;6492;48.128;8.320;2023-01-15T21:13:11;-1.30;51.50
12847;DHT22;6492;48.128;8.320;2023-01-15T21:17:13;-1.20;50.60
12847;DHT22;6492;48.128;8.320;2023-01-15T21:21:21;-1.10;49.40
12847;DHT22;6492;48.128;8.320;2023-01-15T21:25:24;-1.10;48.70
12847;DHT22;6492;48.128;8.320;2023-01-15T21:29:26;-0.90;47.10
12847;DHT22;6492;48.128;8.320;2023-01-15T21:33:28;-1.00;47.30
12847;DHT22;6492;48.128;8.320;2023-01-15T21:37:30;-1.10;47.70
12847;DHT22;6492;48.128;8.320;2023-01-15T21:41:33;-1.20;48.60
12847;DHT22;6492;48.128;8.320;2023-01-15T21:46:00;-1.20;49.10
12847;DHT22;6492;48.128;8.320;2023-01-15T21:50:02;-1.20;49.00
12847;DHT22;6492;48.128;8.320;2023-01-15T21:54:04;-1.10;50.00
12847;DHT22;6492;48.128;8.320;2023-01-15T21:58:07;-1.00;50.60
12847;DHT22;6492;48.128;8.320;2023-01-15T22:02:11;-0.90;48.60
12847;DHT22;6492;48.128;8.320;2023-01-15T22:06:14;-0.80;48.30
12847;DHT22;6492;48.128;8.320;2023-01-15T22:10:16;-0.90;48.50
12847;DHT22;6492;48.128;8.320;2023-01-15T22:14:23;-0.90;48.50
12847;DHT22;6492;48.128;8.320;2023-01-15T22:18:25;-0.90;48.70
12847;DHT22;6492;48.128;8.320;2023-01-15T22:22:49;-0.80;48.90
12847;DHT22;6492;48.128;8.320;2023-01-15T22:26:50;-0.70;48.70
12847;DHT22;6492;48.128;8.320;2023-01-15T22:30:56;-0.60;49.30
12847;DHT22;6492;48.128;8.320;2023-01-15T22:34:58;-0.50;49.30
12847;DHT22;6492;48.128;8.320;2023-01-15T22:39:33;-0.50;48.50
12847;DHT22;6492;48.128;8.320;2023-01-15T22:43:35;-0.50;49.20
12847;DHT22;6492;48.128;8.320;2023-01-15T22:47:38;-0.40;48.20
12847;DHT22;6492;48.128;8.320;2023-01-15T22:51:40;-0.50;48.50
12847;DHT22;6492;48.128;8.320;2023-01-15T22:55:42;-0.50;48.30
12847;DHT22;6492;48.128;8.320;2023-01-15T22:59:44;-0.50;48.50
12847;DHT22;6492;48.128;8.320;2023-01-15T23:03:47;-0.50;48.80
12847;DHT22;6492;48.128;8.320;2023-01-15T23:07:49;-0.40;49.30
12847;DHT22;6492;48.128;8.320;2023-01-15T23:11:51;-0.30;49.00
12847;DHT22;6492;48.128;8.320;2023-01-15T23:15:56;-0.30;49.20
12847;DHT22;6492;48.128;8.320;2023-01-15T23:20:00;-0.30;49.40
12847;DHT22;6492;48.128;8.320;2023-01-15T23:24:02;-0.30;49.80
12847;DHT22;6492;48.128;8.320;2023-01-15T23:28:23;-0.30;49.90
12847;DHT22;6492;48.128;8.320;2023-01-15T23:32:25;-0.30;49.20
12847;DHT22;6492;48.128;8.320;2023-01-15T23:36:28;-0.20;48.20
12847;DHT22;6492;48.128;8.320;2023-01-15T23:40:30;-0.20;48.10
12847;DHT22;6492;48.128;8.320;2023-01-15T23:44:32;-0.20;48.50
12847;DHT22;6492;48.128;8.320;2023-01-15T23:48:51;-0.10;48.30
12847;DHT22;6492;48.128;8.320;2023-01-15T23:52:54;-0.20;48.60
12847;DHT22;6492;48.128;8.320;2023-01-15T23:56:56;-0.20;49.30
